Time;durP1;ratioP1;P1;durP2;ratioP2;P2;SDS_P1;SDS_P2;PMS_P1;PMS_P2;Temp;Humidity;BMP_temperature;BMP_pressure;BME280_temperature;BME280_humidity;BME280_pressure;Samples;Min_cycle;Max_cycle;Signal;HPM_P1;HPM_P2
2022/03/16 00:00:20;;;;;;;56.10;23.07;;;4.20;99.90;;;;;;4916079;29;20693;-50
2022/03/16 00:02:46;;;;;;;57.23;23.33;;;4.20;99.90;;;;;;4913792;29;20549;-48
2022/03/16 00:05:13;;;;;;;48.47;22.73;;;4.20;99.90;;;;;;4914334;29;20451;-48
2022/03/16 00:07:38;;;;;;;48.47;21.40;;;4.10;99.90;;;;;;4915064;29;20563;-48
2022/03/16 00:10:07;;;;;;;44.37;21.50;;;4.10;99.90;;;;;;4915807;29;20517;-48
2022/03/16 00:12:33;;;;;;;52.30;24.37;;;4.10;99.90;;;;;;4915461;29;20187;-48
2022/03/16 00:14:59;;;;;;;48.27;22.60;;;4.00;99.90;;;;;;4915753;29;20427;-48
2022/03/16 00:17:25;;;;;;;61.73;22.37;;;4.00;99.90;;;;;;4916369;29;20785;-49
2022/03/16 00:19:50;;;;;;;45.90;21.97;;;4.00;99.90;;;;;;4915433;29;20274;-48
2022/03/16 00:22:16;;;;;;;52.73;21.87;;;3.90;99.90;;;;;;4915126;29;20237;-49
2022/03/16 00:24:42;;;;;;;59.10;23.20;;;3.90;99.90;;;;;;4911177;29;20199;-49
2022/03/16 00:27:07;;;;;;;49.67;22.20;;;3.90;99.90;;;;;;4896430;29;20214;-49
2022/03/16 00:29:33;;;;;;;53.97;22.03;;;3.90;99.90;;;;;;4896295;29;20183;-49
2022/03/16 00:31:59;;;;;;;48.17;21.23;;;3.90;99.90;;;;;;4896183;29;20238;-49
2022/03/16 00:34:25;;;;;;;46.23;22.77;;;4.00;99.90;;;;;;4896089;29;20543;-49
2022/03/16 00:36:50;;;;;;;48.93;22.27;;;4.00;99.90;;;;;;4896259;29;20515;-48
2022/03/16 00:39:16;;;;;;;54.53;22.20;;;4.00;99.90;;;;;;4896088;29;20510;-49
2022/03/16 00:41:42;;;;;;;54.43;21.07;;;4.00;99.90;;;;;;4896184;29;20184;-50
2022/03/16 00:44:07;;;;;;;43.63;20.20;;;4.00;99.90;;;;;;4906314;29;20190;-50
2022/03/16 00:46:33;;;;;;;50.70;21.67;;;4.00;99.90;;;;;;4914190;29;20194;-49
2022/03/16 00:48:59;;;;;;;42.53;20.60;;;3.90;99.90;;;;;;4914554;29;20183;-49
2022/03/16 00:51:25;;;;;;;50.67;22.07;;;3.90;99.90;;;;;;4914321;29;20483;-49
2022/03/16 00:53:51;;;;;;;46.43;19.97;;;3.90;99.90;;;;;;4914453;29;20435;-49
2022/03/16 00:56:16;;;;;;;39.50;19.67;;;3.90;99.90;;;;;;4914747;29;20180;-49
2022/03/16 00:58:42;;;;;;;53.17;20.57;;;3.80;99.90;;;;;;4914165;29;20295;-49
2022/03/16 01:01:08;;;;;;;47.57;20.97;;;3.80;99.90;;;;;;4914078;29;20217;-48
2022/03/16 01:03:34;;;;;;;43.47;20.30;;;3.80;99.90;;;;;;4913830;29;20194;-49
2022/03/16 01:06:01;;;;;;;48.37;20.80;;;3.80;99.90;;;;;;4910561;29;20201;-49
2022/03/16 01:08:27;;;;;;;40.80;20.30;;;3.80;99.90;;;;;;4914466;29;20511;-48
2022/03/16 01:10:52;;;;;;;41.47;19.70;;;3.80;99.90;;;;;;4913539;29;20797;-49
2022/03/16 01:13:18;;;;;;;39.33;20.33;;;3.80;99.90;;;;;;4914057;29;20183;-49
2022/03/16 01:15:44;;;;;;;42.33;20.63;;;3.80;99.90;;;;;;4913436;29;20849;-49
2022/03/16 01:18:10;;;;;;;45.33;21.67;;;3.80;99.90;;;;;;4914415;29;20203;-49
2022/03/16 01:20:35;;;;;;;43.97;21.10;;;3.70;99.90;;;;;;4913240;29;20238;-49
2022/03/16 01:23:01;;;;;;;37.30;19.23;;;3.70;99.90;;;;;;4913687;29;20274;-49
2022/03/16 01:25:27;;;;;;;37.10;19.90;;;3.80;99.90;;;;;;4914058;29;20198;-49
2022/03/16 01:27:52;;;;;;;38.27;20.57;;;3.80;99.90;;;;;;4913594;29;20514;-49
2022/03/16 01:30:18;;;;;;;42.67;20.33;;;3.80;99.90;;;;;;4913218;29;20195;-50
2022/03/16 01:32:44;;;;;;;44.83;21.60;;;3.90;99.90;;;;;;4912345;29;20574;-49
2022/03/16 01:35:09;;;;;;;40.73;21.73;;;3.90;99.90;;;;;;4913137;29;20187;-49
2022/03/16 01:37:36;;;;;;;47.20;20.97;;;4.00;99.90;;;;;;4913002;29;20572;-50
2022/03/16 01:40:04;;;;;;;46.97;23.20;;;4.00;99.90;;;;;;4910416;29;20746;-49
2022/03/16 01:42:30;;;;;;;40.40;21.20;;;4.00;99.90;;;;;;4909105;29;20491;-49
2022/03/16 01:44:58;;;;;;;40.00;20.30;;;4.10;99.90;;;;;;4910260;29;20479;-49
2022/03/16 01:47:27;;;;;;;44.53;22.17;;;4.10;99.90;;;;;;4913744;29;20218;-49
2022/03/16 01:49:55;;;;;;;56.13;25.10;;;4.20;99.90;;;;;;4913291;29;20467;-49
2022/03/16 01:52:26;;;;;;;50.63;24.30;;;4.20;99.90;;;;;;4913990;29;20542;-49
2022/03/16 01:54:52;;;;;;;51.60;25.10;;;4.30;99.90;;;;;;4913004;29;20929;-49
2022/03/16 01:57:19;;;;;;;65.77;28.80;;;4.30;99.90;;;;;;4908656;29;20460;-48
2022/03/16 01:59:46;;;;;;;56.43;26.13;;;4.40;99.90;;;;;;4912678;29;20913;-48
2022/03/16 02:02:12;;;;;;;59.60;27.20;;;4.50;99.90;;;;;;4912790;29;20442;-49
2022/03/16 02:04:40;;;;;;;60.20;27.50;;;4.50;99.90;;;;;;4912414;29;20522;-49
2022/03/16 02:07:06;;;;;;;64.70;27.30;;;4.60;99.90;;;;;;4912907;29;20469;-49
2022/03/16 02:09:32;;;;;;;50.17;25.50;;;4.60;99.90;;;;;;4912915;29;20510;-48
2022/03/16 02:11:58;;;;;;;59.50;26.80;;;4.60;99.90;;;;;;4912698;29;20542;-48
2022/03/16 02:14:24;;;;;;;58.33;27.90;;;4.70;99.90;;;;;;4912495;29;20463;-49
2022/03/16 02:16:50;;;;;;;55.70;27.77;;;4.70;99.90;;;;;;4912976;29;20222;-49
2022/03/16 02:19:15;;;;;;;61.33;29.30;;;4.70;99.90;;;;;;4911916;29;20225;-49
2022/03/16 02:21:45;;;;;;;61.93;30.20;;;4.70;99.90;;;;;;4913170;29;20443;-49
2022/03/16 02:24:11;;;;;;;69.53;30.40;;;4.80;99.90;;;;;;4913079;29;20270;-49
2022/03/16 02:26:37;;;;;;;75.37;30.83;;;4.80;99.90;;;;;;4912640;29;20518;-48
2022/03/16 02:29:03;;;;;;;65.83;30.17;;;4.80;99.90;;;;;;4912466;29;20202;-49
2022/03/16 02:31:29;;;;;;;57.77;27.77;;;4.90;99.90;;;;;;4912452;29;20474;-49
2022/03/16 02:33:54;;;;;;;62.70;27.83;;;4.90;99.90;;;;;;4911613;29;20666;-49
2022/03/16 02:36:20;;;;;;;59.97;30.07;;;4.90;99.90;;;;;;4912374;29;20907;-49
2022/03/16 02:38:46;;;;;;;73.50;30.80;;;4.90;99.90;;;;;;4912294;29;20186;-49
2022/03/16 02:41:12;;;;;;;69.27;31.90;;;4.90;99.90;;;;;;4895271;29;20191;-48
2022/03/16 02:43:38;;;;;;;62.70;28.20;;;4.90;99.90;;;;;;4895290;29;20431;-49
2022/03/16 02:46:04;;;;;;;57.50;27.87;;;4.90;99.90;;;;;;4909201;29;20443;-48
2022/03/16 02:48:30;;;;;;;67.33;28.90;;;4.90;99.90;;;;;;4895332;29;20492;-48
2022/03/16 02:50:55;;;;;;;59.70;29.10;;;4.80;99.90;;;;;;4912083;29;20191;-49
2022/03/16 02:53:21;;;;;;;61.93;27.90;;;4.80;99.90;;;;;;4912396;29;20187;-49
2022/03/16 02:55:47;;;;;;;48.90;24.57;;;4.80;99.90;;;;;;4912374;29;20188;-49
2022/03/16 02:58:14;;;;;;;45.93;22.70;;;4.70;99.90;;;;;;4912519;29;20183;-49
2022/03/16 03:00:41;;;;;;;55.93;25.73;;;4.60;99.90;;;;;;4911894;29;20483;-48
2022/03/16 03:03:06;;;;;;;51.23;25.93;;;4.50;99.90;;;;;;4895558;29;20438;-49
2022/03/16 03:05:32;;;;;;;52.30;26.43;;;4.40;99.90;;;;;;4912089;29;20447;-49
2022/03/16 03:07:59;;;;;;;58.87;27.13;;;4.40;99.90;;;;;;4913464;29;20218;-50
2022/03/16 03:10:25;;;;;;;44.37;24.97;;;4.30;99.90;;;;;;4914415;29;20270;-49
2022/03/16 03:12:50;;;;;;;49.63;25.53;;;4.20;99.90;;;;;;4915517;29;20596;-49
2022/03/16 03:15:16;;;;;;;55.77;26.00;;;4.10;99.90;;;;;;4898331;29;20431;-49
2022/03/16 03:17:43;;;;;;;56.63;25.60;;;4.00;99.90;;;;;;4915920;29;20184;-48
2022/03/16 03:20:09;;;;;;;54.23;25.70;;;4.00;99.90;;;;;;4915234;29;20221;-48
2022/03/16 03:22:35;;;;;;;47.80;24.70;;;3.90;99.90;;;;;;4915191;29;20467;-49
2022/03/16 03:25:02;;;;;;;57.23;24.93;;;3.80;99.90;;;;;;4915732;29;20991;-49
2022/03/16 03:27:27;;;;;;;54.73;24.83;;;3.70;99.90;;;;;;4915442;29;20466;-50
2022/03/16 03:29:53;;;;;;;48.23;25.47;;;3.70;99.90;;;;;;4915382;29;20454;-48
2022/03/16 03:32:19;;;;;;;54.50;24.57;;;3.60;99.90;;;;;;4915758;29;20238;-49
2022/03/16 03:34:47;;;;;;;50.47;24.73;;;3.60;99.90;;;;;;4914494;29;20267;-49
2022/03/16 03:37:16;;;;;;;59.33;25.07;;;3.70;99.90;;;;;;4915716;29;20175;-49
